Time;durP1;ratioP1;P1;durP2;ratioP2;P2;SDS_P1;SDS_P2;PMS_P1;PMS_P2;Temp;Humidity;BMP_temperature;BMP_pressure;BME280_temperature;BME280_humidity;BME280_pressure;Samples;Min_cycle;Max_cycle;Signal;HPM_P1;HPM_P2
2023/10/22 00:00:14;;;;;;;6.95;1.45;;;37.80;29.10;;;;;;5036661;28;20490;-65
2023/10/22 00:02:41;;;;;;;4.32;1.40;;;37.80;29.00;;;;;;5042953;28;20459;-65
2023/10/22 00:05:08;;;;;;;4.95;1.38;;;37.70;29.10;;;;;;5035873;28;20031;-65
2023/10/22 00:07:34;;;;;;;5.00;1.63;;;37.70;29.40;;;;;;5038699;28;21526;-65
2023/10/22 00:10:01;;;;;;;8.52;1.90;;;37.60;29.60;;;;;;5036146;28;20029;-65
2023/10/22 00:12:28;;;;;;;4.57;1.80;;;37.60;30.00;;;;;;5040170;28;20491;-66
2023/10/22 00:14:54;;;;;;;6.90;1.73;;;37.50;30.10;;;;;;5044235;28;20032;-64
2023/10/22 00:17:21;;;;;;;6.78;2.20;;;37.50;30.00;;;;;;5037626;28;20365;-65
2023/10/22 00:19:47;;;;;;;7.40;1.90;;;37.40;30.00;;;;;;5038998;28;20013;-65
2023/10/22 00:22:15;;;;;;;5.70;1.63;;;37.30;30.00;;;;;;5040691;28;20040;-65
2023/10/22 00:24:43;;;;;;;6.82;1.80;;;37.20;30.40;;;;;;5041614;28;20098;-65
2023/10/22 00:27:09;;;;;;;17.50;2.25;;;37.10;30.70;;;;;;5037728;28;20017;-65
2023/10/22 00:29:36;;;;;;;6.53;2.13;;;37.10;30.50;;;;;;5037831;28;20051;-65
2023/10/22 00:32:03;;;;;;;7.95;2.20;;;37.00;30.70;;;;;;5040638;28;20021;-65
2023/10/22 00:34:29;;;;;;;10.48;2.25;;;36.90;30.40;;;;;;5037022;28;20101;-65
2023/10/22 00:36:58;;;;;;;8.30;2.28;;;36.90;31.00;;;;;;5038346;28;20488;-65
2023/10/22 00:39:24;;;;;;;9.13;2.70;;;36.70;30.60;;;;;;5036633;28;20480;-66
2023/10/22 00:41:51;;;;;;;8.50;2.35;;;36.70;31.10;;;;;;5041967;28;20014;-65
2023/10/22 00:44:17;;;;;;;6.38;2.50;;;36.50;30.80;;;;;;5038805;28;20013;-66
2023/10/22 00:46:47;;;;;;;8.40;2.40;;;36.40;30.90;;;;;;5035119;28;20379;-67
2023/10/22 00:49:15;;;;;;;10.45;2.50;;;36.30;30.80;;;;;;5032305;28;20018;-65
2023/10/22 00:51:42;;;;;;;13.00;2.60;;;36.20;31.00;;;;;;5038362;28;20028;-66
2023/10/22 00:54:10;;;;;;;15.10;2.78;;;36.10;31.40;;;;;;5037444;28;20459;-66
2023/10/22 00:56:36;;;;;;;8.70;2.95;;;36.00;31.70;;;;;;5041798;28;20095;-65
2023/10/22 00:59:03;;;;;;;11.85;3.33;;;35.90;31.60;;;;;;5039408;28;20107;-65
2023/10/22 01:01:31;;;;;;;11.05;3.00;;;35.80;31.80;;;;;;5036853;28;20413;-65
2023/10/22 01:03:57;;;;;;;18.55;2.30;;;35.80;32.60;;;;;;5040447;28;20036;-63
2023/10/22 01:06:24;;;;;;;24.08;3.17;;;35.70;33.10;;;;;;5039418;28;20014;-64
2023/10/22 01:08:53;;;;;;;18.92;2.78;;;35.70;33.80;;;;;;5035152;28;20391;-65
2023/10/22 01:11:19;;;;;;;19.55;2.92;;;35.60;34.00;;;;;;5031362;28;20029;-68
2023/10/22 01:13:46;;;;;;;51.03;5.15;;;35.50;34.40;;;;;;5035709;28;20092;-65
2023/10/22 01:16:12;;;;;;;49.60;5.00;;;35.40;34.40;;;;;;5039354;28;20024;-64
2023/10/22 01:18:39;;;;;;;73.43;5.53;;;35.40;34.30;;;;;;5042570;28;20043;-63
2023/10/22 01:21:06;;;;;;;64.90;5.43;;;35.30;34.10;;;;;;5036521;28;20021;-66
2023/10/22 01:23:38;;;;;;;56.17;6.65;;;35.20;34.00;;;;;;5034774;28;20022;-63
2023/10/22 01:26:09;;;;;;;40.80;6.45;;;35.20;34.00;;;;;;5037412;28;20022;-65
2023/10/22 01:28:36;;;;;;;39.20;7.03;;;35.10;34.10;;;;;;5039160;28;20025;-66
2023/10/22 01:31:10;;;;;;;39.58;8.38;;;35.10;33.80;;;;;;5033344;28;20021;-64
2023/10/22 01:33:37;;;;;;;24.73;5.53;;;35.00;34.10;;;;;;5034518;28;20061;-64
2023/10/22 01:36:04;;;;;;;28.70;4.88;;;35.00;33.90;;;;;;5038292;28;20009;-65
2023/10/22 01:38:30;;;;;;;25.80;3.20;;;34.90;34.00;;;;;;5039922;28;20538;-64
2023/10/22 01:40:57;;;;;;;13.18;3.10;;;34.80;34.20;;;;;;5035793;28;20127;-65
2023/10/22 01:43:23;;;;;;;17.88;3.13;;;34.70;34.20;;;;;;5033840;28;20581;-65
2023/10/22 01:45:50;;;;;;;12.60;3.03;;;34.70;34.40;;;;;;5039668;28;20052;-63
2023/10/22 01:48:16;;;;;;;16.25;2.70;;;34.60;34.70;;;;;;5037916;28;20017;-66
2023/10/22 01:50:43;;;;;;;14.60;2.97;;;34.50;34.50;;;;;;5034460;28;20104;-63
2023/10/22 01:53:09;;;;;;;18.90;3.67;;;34.50;34.70;;;;;;5033446;28;20049;-65
2023/10/22 01:55:36;;;;;;;20.30;3.35;;;34.40;34.90;;;;;;5037101;28;20021;-64
2023/10/22 01:58:03;;;;;;;18.60;3.17;;;34.30;35.20;;;;;;5035434;28;20113;-65
2023/10/22 02:00:30;;;;;;;20.13;3.47;;;34.30;35.70;;;;;;5039337;28;20092;-65
2023/10/22 02:02:57;;;;;;;29.60;3.92;;;34.20;35.10;;;;;;5033868;28;20021;-64
2023/10/22 02:05:23;;;;;;;17.38;4.00;;;34.10;35.40;;;;;;5036549;28;20387;-64
2023/10/22 02:07:50;;;;;;;15.95;3.97;;;34.10;35.40;;;;;;5039154;28;20405;-65
2023/10/22 02:10:16;;;;;;;24.70;3.92;;;34.00;35.50;;;;;;5037349;28;20573;-64
2023/10/22 02:12:43;;;;;;;17.08;3.47;;;33.90;35.60;;;;;;5034866;28;20044;-64
2023/10/22 02:15:09;;;;;;;16.48;3.22;;;33.90;35.60;;;;;;5030805;28;20533;-65
2023/10/22 02:17:37;;;;;;;11.07;2.80;;;33.80;35.60;;;;;;5035271;28;20461;-64
2023/10/22 02:20:08;;;;;;;17.38;3.40;;;33.80;35.70;;;;;;5039568;28;20510;-65
2023/10/22 02:22:36;;;;;;;9.25;3.00;;;33.70;35.80;;;;;;5040063;28;20057;-64
2023/10/22 02:25:03;;;;;;;12.65;3.30;;;33.60;36.00;;;;;;5044342;28;20133;-65
2023/10/22 02:27:29;;;;;;;8.63;2.85;;;33.50;36.30;;;;;;5036857;28;20043;-63
2023/10/22 02:29:56;;;;;;;17.92;3.55;;;33.40;37.30;;;;;;5038162;28;20044;-64
2023/10/22 02:32:22;;;;;;;14.55;3.22;;;33.30;38.30;;;;;;5029096;28;20132;-63
2023/10/22 02:34:52;;;;;;;19.80;3.78;;;33.20;38.60;;;;;;5032144;28;20094;-66
2023/10/22 02:37:19;;;;;;;15.60;3.40;;;33.10;39.20;;;;;;5034806;28;20170;-64
2023/10/22 02:39:46;;;;;;;8.60;2.83;;;33.00;38.50;;;;;;5039420;28;20560;-65
2023/10/22 02:42:13;;;;;;;15.55;2.75;;;32.90;38.30;;;;;;5033473;28;20117;-64
2023/10/22 02:44:40;;;;;;;9.90;2.92;;;32.80;38.40;;;;;;5040251;28;20445;-63
2023/10/22 02:47:06;;;;;;;11.77;2.42;;;32.70;38.10;;;;;;5044435;28;20048;-64
2023/10/22 02:49:33;;;;;;;9.13;2.70;;;32.70;38.10;;;;;;5032229;28;20047;-63
2023/10/22 02:51:59;;;;;;;12.30;2.85;;;32.60;38.10;;;;;;5034988;28;20083;-63
2023/10/22 02:54:25;;;;;;;12.30;2.75;;;32.60;38.40;;;;;;5036263;28;20067;-62
2023/10/22 02:56:52;;;;;;;14.13;2.22;;;32.50;38.20;;;;;;5037642;28;20432;-63
2023/10/22 02:59:18;;;;;;;15.63;3.35;;;32.50;38.40;;;;;;5035492;28;20041;-65
2023/10/22 03:01:45;;;;;;;10.45;2.80;;;32.50;39.10;;;;;;5038885;28;20045;-63
2023/10/22 03:04:11;;;;;;;11.50;2.70;;;32.40;39.90;;;;;;5039345;28;20092;-65
2023/10/22 03:06:38;;;;;;;11.10;2.47;;;32.30;40.30;;;;;;5036488;28;20058;-63
2023/10/22 03:09:04;;;;;;;9.00;2.45;;;32.20;40.10;;;;;;5038047;28;20052;-63
2023/10/22 03:11:31;;;;;;;8.98;2.28;;;32.00;40.10;;;;;;5039239;28;20518;-62
2023/10/22 03:13:58;;;;;;;12.43;3.00;;;31.90;40.20;;;;;;5034657;28;20057;-64
2023/10/22 03:16:24;;;;;;;19.33;3.45;;;31.90;40.50;;;;;;5038218;28;20049;-64
2023/10/22 03:18:51;;;;;;;20.88;3.47;;;31.80;40.50;;;;;;5041402;28;20116;-65
2023/10/22 03:21:19;;;;;;;15.18;3.20;;;31.80;40.40;;;;;;5038225;28;20050;-66
2023/10/22 03:23:47;;;;;;;20.90;4.18;;;31.70;40.30;;;;;;5042975;28;20044;-64
2023/10/22 03:26:16;;;;;;;20.67;3.75;;;31.70;40.40;;;;;;5038198;28;20047;-65
2023/10/22 03:28:46;;;;;;;17.23;2.70;;;31.70;40.50;;;;;;5045668;28;20127;-65
2023/10/22 03:31:14;;;;;;;14.57;2.70;;;31.70;40.80;;;;;;5033778;28;20112;-66
2023/10/22 03:33:41;;;;;;;8.57;2.15;;;31.60;40.20;;;;;;5042026;28;20053;-64
2023/10/22 03:36:09;;;;;;;6.70;2.35;;;31.60;40.50;;;;;;5041575;28;20061;-66
2023/10/22 03:38:35;;;;;;;10.85;2.13;;;31.60;40.20;;;;;;5042807;28;20133;-66
2023/10/22 03:41:06;;;;;;;9.95;2.85;;;31.50;40.20;;;;;;5034106;28;20052;-64
2023/10/22 03:43:34;;;;;;;4.88;2.53;;;31.50;40.50;;;;;;5036610;28;20557;-66
2023/10/22 03:46:01;;;;;;;10.18;3.03;;;31.40;40.70;;;;;;5042341;28;20055;-65
2023/10/22 03:48:28;;;;;;;9.15;3.13;;;31.40;40.70;;;;;;5045393;28;20056;-64
2023/10/22 03:50:55;;;;;;;8.98;3.38;;;31.30;40.90;;;;;;5037756;28;20051;-65
2023/10/22 03:53:22;;;;;;;8.20;3.55;;;31.30;41.10;;;;;;5042198;28;20064;-64
2023/10/22 03:55:49;;;;;;;18.13;2.78;;;31.30;41.20;;;;;;5045077;28;20102;-64
2023/10/22 03:58:17;;;;;;;16.55;2.70;;;31.20;41.20;;;;;;5040532;28;20070;-64
2023/10/22 04:00:43;;;;;;;3.28;2.00;;;31.20;41.50;;;;;;5039760;28;20054;-63
2023/10/22 04:03:10;;;;;;;4.68;2.10;;;31.20;41.40;;;;;;5037655;28;20130;-64
2023/10/22 04:05:36;;;;;;;2.55;1.88;;;31.20;41.60;;;;;;5033444;28;20408;-64
2023/10/22 04:08:03;;;;;;;5.85;2.00;;;31.10;41.50;;;;;;5033578;28;20125;-63
2023/10/22 04:10:30;;;;;;;5.88;2.38;;;31.10;41.50;;;;;;5038844;28;20062;-63
2023/10/22 04:12:56;;;;;;;8.05;2.20;;;31.00;41.70;;;;;;5038031;28;20062;-63
2023/10/22 04:15:22;;;;;;;6.85;1.95;;;31.00;41.70;;;;;;5037102;28;20047;-64
2023/10/22 04:17:49;;;;;;;10.77;2.00;;;30.90;41.50;;;;;;5036676;28;20075;-64
2023/10/22 04:20:16;;;;;;;6.25;1.90;;;30.90;41.50;;;;;;5039766;28;20050;-65
2023/10/22 04:22:43;;;;;;;2.95;1.75;;;30.80;41.50;;;;;;5031486;28;20063;-65
2023/10/22 04:25:11;;;;;;;10.48;2.50;;;30.80;41.60;;;;;;5040972;28;20063;-64
2023/10/22 04:27:38;;;;;;;8.35;2.78;;;30.80;41.50;;;;;;5040964;28;20076;-63
2023/10/22 04:30:05;;;;;;;10.15;2.58;;;30.70;41.60;;;;;;5034384;28;20064;-64
2023/10/22 04:32:36;;;;;;;9.18;2.42;;;30.70;41.50;;;;;;5036611;28;20069;-63
2023/10/22 04:35:03;;;;;;;4.43;1.98;;;30.70;41.60;;;;;;5041161;28;20175;-65
2023/10/22 04:37:30;;;;;;;9.38;2.10;;;30.60;41.70;;;;;;5041463;28;20548;-64
2023/10/22 04:39:56;;;;;;;10.32;2.15;;;30.60;41.60;;;;;;5037712;28;20060;-64
2023/10/22 04:42:24;;;;;;;7.65;1.83;;;30.60;41.60;;;;;;5033664;28;20058;-64
2023/10/22 04:44:50;;;;;;;6.10;2.00;;;30.50;41.50;;;;;;5028553;28;20515;-63
2023/10/22 04:47:17;;;;;;;6.30;2.20;;;30.50;41.50;;;;;;5027870;28;20055;-63
2023/10/22 04:49:44;;;;;;;7.10;2.58;;;30.50;41.50;;;;;;5031765;28;20049;-65
2023/10/22 04:52:21;;;;;;;8.45;2.20;;;30.40;41.50;;;;;;5038015;28;20543;-64
2023/10/22 04:54:47;;;;;;;7.05;1.92;;;30.50;41.60;;;;;;5029059;28;20521;-65
2023/10/22 04:57:14;;;;;;;9.23;2.35;;;30.50;41.50;;;;;;5034151;28;20073;-65
2023/10/22 04:59:40;;;;;;;3.95;1.70;;;30.40;41.40;;;;;;5036525;28;20064;-65
2023/10/22 05:02:06;;;;;;;7.43;1.92;;;30.50;41.30;;;;;;5037827;28;20142;-65
2023/10/22 05:04:33;;;;;;;4.10;1.92;;;30.40;41.00;;;;;;5041126;28;20052;-66
2023/10/22 05:06:59;;;;;;;5.63;2.10;;;30.40;41.00;;;;;;5037194;28;20146;-65
2023/10/22 05:09:26;;;;;;;6.25;2.05;;;30.40;41.20;;;;;;5038379;28;20139;-64
2023/10/22 05:11:52;;;;;;;7.82;2.10;;;30.50;40.80;;;;;;5041727;28;20057;-66
2023/10/22 05:14:19;;;;;;;5.25;2.00;;;30.50;40.90;;;;;;5035633;28;20069;-65
2023/10/22 05:16:47;;;;;;;3.40;1.92;;;30.50;40.80;;;;;;5037019;28;20055;-64
2023/10/22 05:19:14;;;;;;;5.40;1.85;;;30.50;40.90;;;;;;5040721;28;20256;-66
2023/10/22 05:21:40;;;;;;;5.78;2.08;;;30.40;40.70;;;;;;5042791;28;20546;-65
2023/10/22 05:24:09;;;;;;;4.50;1.85;;;30.40;40.60;;;;;;5039634;28;20418;-65
2023/10/22 05:26:36;;;;;;;11.75;2.80;;;30.40;40.60;;;;;;5031288;28;20526;-64
2023/10/22 05:29:03;;;;;;;8.68;2.20;;;30.40;40.60;;;;;;5025961;28;20224;-64
2023/10/22 05:31:30;;;;;;;5.32;1.98;;;30.40;40.60;;;;;;5027321;28;20058;-65
2023/10/22 05:33:56;;;;;;;4.88;1.88;;;30.40;40.80;;;;;;5030054;28;20154;-65
2023/10/22 05:36:23;;;;;;;8.48;1.80;;;30.40;40.50;;;;;;5026575;28;20506;-66
2023/10/22 05:38:50;;;;;;;7.03;2.05;;;30.30;40.60;;;;;;5030156;28;20080;-64
2023/10/22 05:41:27;;;;;;;6.40;2.25;;;30.30;40.70;;;;;;5026549;28;20510;-64
2023/10/22 05:44:02;;;;;;;6.30;2.08;;;30.30;40.70;;;;;;5024942;28;20062;-65
2023/10/22 05:46:30;;;;;;;7.18;1.98;;;30.30;40.70;;;;;;5034895;28;20067;-65
2023/10/22 05:48:57;;;;;;;6.50;1.92;;;30.30;40.90;;;;;;5025730;28;20144;-64
2023/10/22 05:51:24;;;;;;;6.15;1.80;;;30.30;41.00;;;;;;5031731;28;20131;-63
2023/10/22 05:53:51;;;;;;;4.43;1.70;;;30.30;41.10;;;;;;5034460;28;20097;-64
2023/10/22 05:56:17;;;;;;;7.20;2.90;;;30.20;41.10;;;;;;5034142;28;20074;-65
2023/10/22 05:58:44;;;;;;;13.20;2.60;;;30.20;41.80;;;;;;5033588;28;20097;-63
2023/10/22 06:01:12;;;;;;;8.43;2.10;;;30.00;42.70;;;;;;5033053;28;20052;-64
2023/10/22 06:03:39;;;;;;;9.25;2.35;;;30.00;43.60;;;;;;5034939;28;20151;-65
2023/10/22 06:06:05;;;;;;;5.32;2.25;;;29.80;43.10;;;;;;5032647;28;20084;-64
2023/10/22 06:08:32;;;;;;;3.58;2.08;;;29.70;43.20;;;;;;5031981;28;20067;-64
2023/10/22 06:10:58;;;;;;;10.40;2.10;;;29.70;43.40;;;;;;5032563;28;20065;-64
2023/10/22 06:13:25;;;;;;;4.97;1.77;;;29.60;43.70;;;;;;5027903;28;20177;-64
2023/10/22 06:15:57;;;;;;;5.75;2.10;;;29.60;43.30;;;;;;5033000;28;20440;-65
2023/10/22 06:18:24;;;;;;;8.52;2.65;;;29.50;43.40;;;;;;5033070;28;20074;-63
2023/10/22 06:20:50;;;;;;;3.83;1.67;;;29.40;44.10;;;;;;5029095;28;20071;-64
2023/10/22 06:23:17;;;;;;;5.70;2.67;;;29.40;44.10;;;;;;5032114;28;20502;-64
2023/10/22 06:25:44;;;;;;;11.25;2.20;;;29.40;44.00;;;;;;5032990;28;20063;-64
2023/10/22 06:28:11;;;;;;;8.73;2.65;;;29.30;44.40;;;;;;5029520;28;20058;-64
2023/10/22 06:30:37;;;;;;;5.05;2.08;;;29.20;44.50;;;;;;5028028;28;20059;-64
2023/10/22 06:33:04;;;;;;;4.18;2.20;;;29.20;44.80;;;;;;5029765;28;20086;-64
2023/10/22 06:35:31;;;;;;;8.23;2.30;;;29.10;44.90;;;;;;5026094;28;20213;-64
2023/10/22 06:37:57;;;;;;;8.18;2.28;;;29.10;44.90;;;;;;5028973;28;20179;-64
2023/10/22 06:40:24;;;;;;;8.40;2.03;;;29.00;44.80;;;;;;5030557;28;20170;-64
2023/10/22 06:42:51;;;;;;;4.53;2.20;;;28.90;45.50;;;;;;5031657;28;20062;-64
2023/10/22 06:45:18;;;;;;;5.45;2.03;;;28.90;45.00;;;;;;5033819;28;20418;-64
2023/10/22 06:47:46;;;;;;;7.03;2.20;;;28.80;44.80;;;;;;5025081;28;20068;-63
2023/10/22 06:50:14;;;;;;;10.13;2.00;;;28.80;44.80;;;;;;5029487;28;20078;-63
2023/10/22 06:52:43;;;;;;;9.05;2.00;;;28.80;44.90;;;;;;5028319;28;20099;-62
2023/10/22 06:55:10;;;;;;;4.32;2.20;;;28.80;44.80;;;;;;5027081;28;20150;-64
2023/10/22 06:57:38;;;;;;;11.27;1.92;;;28.80;44.80;;;;;;5030323;28;20992;-64
2023/10/22 07:00:08;;;;;;;4.93;1.63;;;28.80;45.00;;;;;;5028172;28;20070;-63
2023/10/22 07:02:34;;;;;;;3.83;1.48;;;28.70;44.50;;;;;;5028555;28;20056;-65
2023/10/22 07:05:01;;;;;;;7.40;1.90;;;28.70;44.90;;;;;;5026087;28;20103;-65
2023/10/22 07:07:28;;;;;;;8.52;2.22;;;28.70;45.10;;;;;;5025764;28;20074;-63
2023/10/22 07:09:55;;;;;;;5.05;2.10;;;28.60;44.90;;;;;;5027039;28;20068;-62
2023/10/22 07:12:22;;;;;;;5.70;2.28;;;28.60;44.70;;;;;;5031694;28;20065;-63
2023/10/22 07:14:48;;;;;;;5.57;1.90;;;28.60;44.70;;;;;;5029550;28;20067;-64
2023/10/22 07:17:15;;;;;;;12.15;2.33;;;28.60;45.00;;;;;;5027045;28;20171;-63
2023/10/22 07:19:42;;;;;;;6.22;2.03;;;28.60;44.50;;;;;;5023995;28;20065;-64
2023/10/22 07:22:08;;;;;;;6.80;2.17;;;28.60;44.90;;;;;;5029684;28;20052;-66
2023/10/22 07:24:34;;;;;;;5.68;1.75;;;28.60;45.20;;;;;;5031089;28;20059;-65
2023/10/22 07:27:01;;;;;;;5.18;2.00;;;28.50;45.10;;;;;;5030992;28;20066;-65
2023/10/22 07:29:28;;;;;;;3.80;1.75;;;28.50;44.90;;;;;;5027831;28;20083;-65
2023/10/22 07:31:54;;;;;;;2.63;1.75;;;28.40;44.70;;;;;;5027122;28;20086;-65
2023/10/22 07:34:21;;;;;;;6.38;1.85;;;28.40;44.40;;;;;;5032603;28;20095;-64
2023/10/22 07:36:47;;;;;;;4.05;2.05;;;28.40;44.50;;;;;;4676277;28;10148383;-64
2023/10/22 07:39:14;;;;;;;3.47;1.70;;;28.30;44.70;;;;;;5033483;28;20081;-64
2023/10/22 07:41:40;;;;;;;10.07;1.77;;;28.30;44.40;;;;;;5026731;28;20062;-66
2023/10/22 07:44:07;;;;;;;7.93;1.70;;;28.30;44.20;;;;;;5029113;28;20067;-64
2023/10/22 07:46:33;;;;;;;5.97;1.65;;;28.30;44.40;;;;;;5030212;28;20581;-64
2023/10/22 07:49:00;;;;;;;8.20;1.77;;;28.30;44.30;;;;;;5029827;28;20146;-64
2023/10/22 07:51:28;;;;;;;7.90;1.60;;;28.30;44.30;;;;;;5030225;28;20065;-64
2023/10/22 07:53:54;;;;;;;5.63;1.90;;;28.30;44.50;;;;;;5026796;28;20141;-63
2023/10/22 07:56:21;;;;;;;5.35;1.83;;;28.20;44.80;;;;;;5029600;28;20075;-66
2023/10/22 07:58:47;;;;;;;7.70;1.98;;;28.20;44.60;;;;;;5029612;28;20076;-65
2023/10/22 08:01:14;;;;;;;5.97;1.80;;;28.10;45.00;;;;;;5027469;28;20059;-64
2023/10/22 08:03:41;;;;;;;7.03;2.22;;;28.10;44.80;;;;;;5024868;28;20128;-64
2023/10/22 08:06:07;;;;;;;6.82;1.85;;;28.10;44.80;;;;;;5029512;28;20058;-64
2023/10/22 08:08:34;;;;;;;4.32;1.70;;;28.10;44.70;;;;;;5033092;28;20065;-64
2023/10/22 08:11:02;;;;;;;7.70;1.70;;;28.00;44.60;;;;;;5028834;28;20061;-63
2023/10/22 08:13:29;;;;;;;10.07;1.83;;;28.10;44.90;;;;;;5034277;28;20065;-70
2023/10/22 08:15:56;;;;;;;3.30;1.83;;;28.00;45.30;;;;;;5024611;28;20078;-65
2023/10/22 08:18:23;;;;;;;4.35;2.10;;;28.00;45.40;;;;;;5030917;28;20107;-64
2023/10/22 08:20:50;;;;;;;4.32;1.95;;;27.90;45.80;;;;;;5028238;28;20133;-65
2023/10/22 08:23:17;;;;;;;4.25;1.55;;;27.90;45.70;;;;;;5026781;28;20077;-65
2023/10/22 08:25:53;;;;;;;7.13;1.85;;;27.90;46.10;;;;;;5029893;28;20207;-65
2023/10/22 08:28:20;;;;;;;8.13;1.80;;;27.80;46.10;;;;;;5026222;28;20062;-64
2023/10/22 08:30:47;;;;;;;4.72;1.75;;;27.80;46.60;;;;;;5025968;28;20087;-64
2023/10/22 08:33:14;;;;;;;5.70;2.15;;;27.80;47.00;;;;;;5027056;28;20076;-63
2023/10/22 08:35:41;;;;;;;4.15;1.88;;;27.70;46.90;;;;;;5027068;28;20098;-64
2023/10/22 08:38:07;;;;;;;8.57;2.50;;;27.70;47.80;;;;;;5028667;28;20206;-64
2023/10/22 08:40:41;;;;;;;12.55;2.78;;;27.60;48.30;;;;;;5023671;28;20148;-64
2023/10/22 08:43:16;;;;;;;9.95;2.45;;;27.50;48.30;;;;;;5027480;28;20078;-64
2023/10/22 08:45:46;;;;;;;8.80;2.40;;;27.40;48.50;;;;;;5030509;28;20076;-64
2023/10/22 08:48:14;;;;;;;6.70;2.03;;;27.30;48.90;;;;;;5025197;28;20076;-63
2023/10/22 08:50:44;;;;;;;12.80;2.45;;;27.30;48.90;;;;;;5027922;28;20571;-64
2023/10/22 08:53:12;;;;;;;9.00;2.58;;;27.30;48.90;;;;;;5028418;28;20073;-64
2023/10/22 08:55:47;;;;;;;9.40;2.30;;;27.20;48.90;;;;;;5028811;28;20155;-64
2023/10/22 08:58:19;;;;;;;8.25;2.25;;;27.10;49.00;;;;;;5023883;28;20139;-64
2023/10/22 09:00:47;;;;;;;6.13;1.98;;;27.10;49.10;;;;;;5028555;28;20065;-64
2023/10/22 09:03:15;;;;;;;7.15;2.00;;;27.10;48.80;;;;;;5028039;28;20094;-64
2023/10/22 09:05:43;;;;;;;6.68;1.60;;;27.00;49.10;;;;;;5027377;28;20073;-64
2023/10/22 09:08:09;;;;;;;3.53;1.60;;;27.00;49.50;;;;;;5027132;28;20114;-63
2023/10/22 09:10:37;;;;;;;5.88;1.83;;;26.90;48.90;;;;;;5028915;28;20069;-64
2023/10/22 09:13:14;;;;;;;9.38;2.40;;;26.90;49.20;;;;;;5026121;28;20109;-63
2023/10/22 09:15:41;;;;;;;;;;;26.90;49.10;;;;;;5026082;28;20099;-65
2023/10/22 09:18:08;;;;;;;5.30;1.80;;;26.90;49.00;;;;;;5028609;28;19977;-65
2023/10/22 09:20:35;;;;;;;6.47;1.90;;;26.90;48.90;;;;;;5026430;28;20129;-66
2023/10/22 09:23:17;;;;;;;7.78;1.70;;;26.90;48.30;;;;;;5024940;28;20079;-64
2023/10/22 09:25:49;;;;;;;10.30;1.70;;;27.00;48.20;;;;;;5025492;28;20439;-65
2023/10/22 09:28:27;;;;;;;3.25;1.48;;;27.00;48.00;;;;;;5027680;28;20069;-65
2023/10/22 09:31:04;;;;;;;5.95;1.65;;;27.10;47.80;;;;;;5026621;28;20418;-65
2023/10/22 09:33:35;;;;;;;4.75;1.63;;;27.10;47.60;;;;;;5025709;28;20099;-64
2023/10/22 09:36:10;;;;;;;12.48;2.13;;;27.10;47.60;;;;;;5026559;28;20084;-64
2023/10/22 09:38:50;;;;;;;8.02;1.77;;;27.10;47.70;;;;;;5025442;28;20101;-65
2023/10/22 09:41:29;;;;;;;7.43;2.22;;;27.20;47.60;;;;;;5031903;28;20062;-65
2023/10/22 09:43:57;;;;;;;4.68;1.52;;;27.20;47.70;;;;;;5026765;28;20146;-65
2023/10/22 09:46:32;;;;;;;3.53;1.60;;;27.20;48.30;;;;;;5025927;28;20072;-66
2023/10/22 09:49:00;;;;;;;4.95;1.60;;;27.20;48.10;;;;;;5028606;28;20068;-66
2023/10/22 09:51:31;;;;;;;14.32;2.05;;;27.10;48.60;;;;;;5031177;28;20073;-64
2023/10/22 09:54:02;;;;;;;6.60;1.75;;;27.10;48.90;;;;;;5026688;28;20078;-64
2023/10/22 09:56:32;;;;;;;2.08;1.50;;;27.00;49.00;;;;;;5027816;28;20543;-66
2023/10/22 09:59:07;;;;;;;8.20;2.10;;;27.00;49.40;;;;;;5026765;28;20814;-64
2023/10/22 10:01:38;;;;;;;6.23;1.70;;;27.00;49.50;;;;;;5029229;28;20074;-65
2023/10/22 10:04:06;;;;;;;3.80;1.63;;;26.90;49.70;;;;;;5027218;28;20484;-65
2023/10/22 10:06:35;;;;;;;7.78;1.60;;;26.90;49.70;;;;;;5023818;28;20417;-65
2023/10/22 10:09:03;;;;;;;3.47;1.67;;;26.90;50.20;;;;;;5024283;28;20073;-65
2023/10/22 10:11:31;;;;;;;5.03;1.60;;;26.80;50.20;;;;;;5024818;28;20132;-64
2023/10/22 10:13:58;;;;;;;6.03;2.03;;;26.80;50.70;;;;;;5025139;28;20070;-64
2023/10/22 10:16:25;;;;;;;6.80;2.05;;;26.70;50.80;;;;;;5027953;28;20076;-64
2023/10/22 10:19:04;;;;;;;15.55;2.10;;;26.70;50.80;;;;;;5025090;28;20503;-64
2023/10/22 10:21:39;;;;;;;7.57;2.45;;;26.70;51.00;;;;;;5027393;28;20072;-65
2023/10/22 10:24:17;;;;;;;6.35;2.15;;;26.70;50.90;;;;;;5025722;28;20071;-64
2023/10/22 10:26:45;;;;;;;7.97;2.33;;;26.60;50.90;;;;;;5023250;28;20075;-64
2023/10/22 10:29:15;;;;;;;8.75;1.80;;;26.60;50.70;;;;;;5030999;28;20092;-65
2023/10/22 10:31:47;;;;;;;10.98;2.70;;;26.50;50.90;;;;;;5028721;28;20129;-66
2023/10/22 10:34:39;;;;;;;10.43;2.33;;;26.50;50.80;;;;;;5024158;28;20078;-65
2023/10/22 10:37:10;;;;;;;8.27;2.00;;;26.50;51.00;;;;;;5029150;28;20098;-65
2023/10/22 10:39:47;;;;;;;8.23;2.05;;;26.50;51.10;;;;;;5027122;28;20168;-65
2023/10/22 10:42:15;;;;;;;9.52;2.15;;;26.50;51.20;;;;;;5028759;28;20067;-66
2023/10/22 10:45:00;;;;;;;9.55;2.20;;;26.40;51.50;;;;;;5031674;28;20101;-65
2023/10/22 10:47:33;;;;;;;11.10;2.45;;;26.30;51.50;;;;;;5029842;28;20470;-65
2023/10/22 10:50:02;;;;;;;8.50;2.53;;;26.20;51.80;;;;;;5032089;28;20420;-65
2023/10/22 10:52:58;;;;;;;6.63;2.28;;;26.20;51.70;;;;;;5029334;28;20078;-65
2023/10/22 10:55:34;;;;;;;7.55;2.67;;;26.30;52.10;;;;;;5029481;28;20071;-64
2023/10/22 10:58:01;;;;;;;7.95;2.67;;;26.20;51.90;;;;;;5028849;28;20091;-64
2023/10/22 11:00:32;;;;;;;11.40;2.38;;;26.00;51.70;;;;;;5031789;28;20083;-65
2023/10/22 11:03:06;;;;;;;7.38;2.42;;;26.00;51.80;;;;;;5032565;28;20062;-64
2023/10/22 11:05:40;;;;;;;14.38;2.40;;;26.10;52.00;;;;;;5032656;28;20555;-65
2023/10/22 11:08:15;;;;;;;12.73;2.50;;;26.00;51.80;;;;;;5033572;28;20100;-65
2023/10/22 11:10:42;;;;;;;7.63;2.17;;;26.00;52.00;;;;;;5030902;28;20078;-65
2023/10/22 11:13:09;;;;;;;14.10;2.65;;;25.90;51.80;;;;;;5026967;28;20082;-65
2023/10/22 11:15:37;;;;;;;8.63;2.38;;;26.00;51.70;;;;;;5030597;28;20080;-64
2023/10/22 11:18:05;;;;;;;8.30;1.65;;;26.00;51.00;;;;;;5027738;28;20150;-66
2023/10/22 11:20:32;;;;;;;9.20;2.15;;;26.00;50.90;;;;;;5027393;28;20559;-65
2023/10/22 11:22:59;;;;;;;7.57;1.92;;;26.00;50.90;;;;;;5031146;28;20134;-64
2023/10/22 11:25:27;;;;;;;8.43;2.10;;;26.00;51.10;;;;;;5032883;28;20606;-62
2023/10/22 11:27:54;;;;;;;11.48;2.10;;;26.00;51.00;;;;;;5029171;28;20595;-63
2023/10/22 11:30:38;;;;;;;10.45;1.90;;;26.00;51.10;;;;;;5030085;28;20554;-64
2023/10/22 11:33:08;;;;;;;7.03;2.00;;;26.00;51.50;;;;;;5029799;28;20091;-65
2023/10/22 11:35:37;;;;;;;8.40;1.95;;;25.90;51.40;;;;;;5027706;28;20606;-65
2023/10/22 11:38:05;;;;;;;7.32;1.98;;;25.90;51.50;;;;;;5032237;28;20103;-65
2023/10/22 11:40:39;;;;;;;5.00;1.90;;;25.90;51.60;;;;;;5031329;28;20574;-65
2023/10/22 11:43:17;;;;;;;6.25;1.98;;;25.70;51.60;;;;;;5030863;28;20095;-64
2023/10/22 11:45:56;;;;;;;9.07;2.20;;;25.70;52.00;;;;;;5026997;28;20077;-65
2023/10/22 11:48:29;;;;;;;12.20;2.15;;;25.60;52.10;;;;;;5031454;28;20455;-65
2023/10/22 11:50:58;;;;;;;4.38;1.77;;;25.60;52.40;;;;;;5025255;28;20079;-65
2023/10/22 11:53:29;;;;;;;6.32;1.80;;;25.60;52.60;;;;;;5027579;28;20786;-64
2023/10/22 11:55:55;;;;;;;11.02;1.70;;;25.50;52.40;;;;;;5031441;28;20432;-63
2023/10/22 11:58:27;;;;;;;6.47;1.98;;;25.50;52.80;;;;;;5031020;28;20210;-64
2023/10/22 12:00:53;;;;;;;6.75;1.90;;;25.40;53.20;;;;;;5025093;28;20244;-64
2023/10/22 12:03:20;;;;;;;10.35;2.60;;;25.40;53.50;;;;;;5026825;28;20086;-63
2023/10/22 12:05:46;;;;;;;7.78;2.30;;;25.40;52.70;;;;;;5028417;28;20126;-64
2023/10/22 12:08:13;;;;;;;7.68;2.50;;;25.30;52.80;;;;;;5026040;28;20207;-65
2023/10/22 12:10:39;;;;;;;10.18;2.20;;;25.30;52.50;;;;;;5028678;28;20500;-64
2023/10/22 12:13:06;;;;;;;8.05;2.30;;;25.30;52.70;;;;;;5027293;28;20081;-64
2023/10/22 12:15:34;;;;;;;7.28;2.47;;;25.20;52.50;;;;;;5024216;28;20077;-64
2023/10/22 12:18:01;;;;;;;7.00;2.67;;;25.10;52.50;;;;;;5028643;28;20103;-64
2023/10/22 12:20:27;;;;;;;12.45;2.20;;;25.00;53.00;;;;;;5025515;28;20083;-66
2023/10/22 12:22:54;;;;;;;7.22;2.30;;;24.90;53.40;;;;;;5026327;28;20086;-64
2023/10/22 12:25:21;;;;;;;4.57;2.35;;;24.80;53.70;;;;;;5029591;28;20102;-65
2023/10/22 12:27:47;;;;;;;14.07;2.92;;;24.80;54.20;;;;;;5026852;28;20084;-65
2023/10/22 12:30:15;;;;;;;8.48;2.88;;;24.80;54.50;;;;;;5024695;28;20129;-64
2023/10/22 12:32:41;;;;;;;8.52;2.50;;;24.70;54.10;;;;;;5026720;28;20124;-64
2023/10/22 12:35:08;;;;;;;6.85;2.35;;;24.60;54.60;;;;;;5025518;28;20100;-65
2023/10/22 12:37:34;;;;;;;7.88;2.33;;;24.60;54.80;;;;;;5021833;28;20106;-63
2023/10/22 12:40:01;;;;;;;8.05;3.05;;;24.50;54.70;;;;;;5027052;28;20127;-63
2023/10/22 12:42:27;;;;;;;8.25;2.10;;;24.50;55.00;;;;;;5024801;28;20077;-64
2023/10/22 12:44:54;;;;;;;16.20;3.00;;;24.40;54.60;;;;;;5026936;28;20075;-64
2023/10/22 12:47:20;;;;;;;11.57;2.63;;;24.30;55.00;;;;;;5024153;28;20074;-63